Time;durP1;ratioP1;P1;durP2;ratioP2;P2;SDS_P1;SDS_P2;PMS_P1;PMS_P2;Temp;Humidity;BMP_temperature;BMP_pressure;BME280_temperature;BME280_humidity;BME280_pressure;Samples;Min_cycle;Max_cycle;Signal;HPM_P1;HPM_P2
2022/10/06 00:02:38;;;;;;;24.38;16.75;;;;;;;5.85;93.35;98973.09;10419830;28;20052;-58
2022/10/06 00:07:37;;;;;;;23.58;17.38;;;;;;;5.80;93.68;98951.47;10419818;28;20025;-58
2022/10/06 00:12:44;;;;;;;24.25;15.68;;;;;;;5.79;93.58;98952.28;10419411;28;20064;-59
2022/10/06 00:17:43;;;;;;;22.42;15.73;;;;;;;5.66;93.89;98943.22;10419452;28;20079;-58
2022/10/06 00:22:44;;;;;;;25.38;16.00;;;;;;;5.74;94.14;98944.41;10419119;28;20095;-58
2022/10/06 00:27:46;;;;;;;23.83;16.85;;;;;;;5.75;94.26;98942.69;10418893;28;20068;-58
2022/10/06 00:32:56;;;;;;;23.50;17.25;;;;;;;5.71;93.81;98933.09;10418654;28;20083;-58
2022/10/06 00:37:55;;;;;;;24.85;16.75;;;;;;;5.68;94.25;98928.69;10418589;28;20063;-58
2022/10/06 00:43:03;;;;;;;23.17;15.23;;;;;;;5.76;94.00;98927.28;10418674;28;20031;-58
2022/10/06 00:48:10;;;;;;;18.70;11.43;;;;;;;5.73;93.98;98922.00;10418664;28;20471;-58
2022/10/06 00:53:09;;;;;;;25.75;18.27;;;;;;;5.72;94.02;98919.41;10417812;28;20494;-58
2022/10/06 00:58:08;;;;;;;28.10;18.52;;;;;;;5.65;94.11;98908.00;10417666;28;20068;-58
2022/10/06 01:03:16;;;;;;;25.10;16.63;;;;;;;5.61;94.14;98900.09;10417950;28;20060;-58
2022/10/06 01:08:16;;;;;;;24.23;15.45;;;;;;;5.62;94.00;98894.13;10417184;28;20082;-58
2022/10/06 01:13:17;;;;;;;27.70;19.23;;;;;;;5.50;94.13;98884.25;10416953;28;20074;-58
2022/10/06 01:18:19;;;;;;;26.42;17.33;;;;;;;5.52;93.97;98886.03;10416705;28;20084;-58
2022/10/06 01:23:19;;;;;;;21.35;14.43;;;;;;;5.42;94.55;98876.25;10416315;28;20063;-58
2022/10/06 01:28:18;;;;;;;22.58;14.70;;;;;;;5.45;94.08;98893.50;10416492;28;20071;-58
2022/10/06 01:33:19;;;;;;;19.60;13.55;;;;;;;5.42;94.40;98883.09;10416534;28;20067;-58
2022/10/06 01:38:19;;;;;;;21.65;14.05;;;;;;;5.37;94.34;98887.16;10416038;28;20068;-58
2022/10/06 01:43:18;;;;;;;18.60;12.77;;;;;;;5.22;94.66;98877.19;10415926;28;20518;-58
2022/10/06 01:48:17;;;;;;;19.55;11.45;;;;;;;5.21;94.61;98896.03;10415765;28;20557;-58
2022/10/06 01:53:16;;;;;;;16.08;11.05;;;;;;;5.04;94.45;98885.06;10415603;28;20566;-58
2022/10/06 01:58:15;;;;;;;13.80;9.75;;;;;;;4.91;94.52;98889.69;10415369;28;20075;-58
2022/10/06 02:03:14;;;;;;;26.17;11.05;;;;;;;4.88;94.45;98883.56;10415621;28;20025;-58
2022/10/06 02:08:13;;;;;;;12.95;9.02;;;;;;;4.87;94.29;98881.78;10415614;28;20474;-58
2022/10/06 02:13:12;;;;;;;12.82;9.60;;;;;;;4.84;94.21;98876.53;10414824;28;20060;-58
2022/10/06 02:18:11;;;;;;;12.93;9.90;;;;;;;4.81;94.43;98882.44;10414851;28;20090;-58
2022/10/06 02:23:10;;;;;;;19.83;11.95;;;;;;;4.68;94.36;98886.19;10414820;28;20108;-58
2022/10/06 02:28:09;;;;;;;22.25;13.02;;;;;;;4.57;94.54;98890.03;10414925;28;20093;-58
2022/10/06 02:33:08;;;;;;;17.55;13.35;;;;;;;4.49;94.78;98882.00;10414680;28;20123;-58
2022/10/06 02:38:07;;;;;;;19.20;13.23;;;;;;;4.45;94.81;98881.81;10414520;28;20040;-58
2022/10/06 02:43:06;;;;;;;21.88;12.82;;;;;;;4.42;94.82;98884.25;10414377;28;20074;-58
2022/10/06 02:48:05;;;;;;;20.17;13.02;;;;;;;4.39;94.83;98881.56;10414954;28;20025;-58
2022/10/06 02:53:07;;;;;;;21.75;13.50;;;;;;;4.40;94.66;98878.19;10414394;28;20116;-58
2022/10/06 02:58:06;;;;;;;19.30;13.02;;;;;;;4.39;94.72;98882.44;10414157;28;20068;-58
2022/10/06 03:03:05;;;;;;;18.80;13.15;;;;;;;4.43;94.38;98879.19;10414687;28;20104;-58
2022/10/06 03:08:04;;;;;;;18.35;12.52;;;;;;;4.42;94.42;98877.44;10415829;28;20037;-58
2022/10/06 03:13:03;;;;;;;18.60;12.85;;;;;;;4.44;94.22;98869.78;10417961;28;20499;-58
2022/10/06 03:18:02;;;;;;;22.05;14.13;;;;;;;4.39;94.34;98861.88;10417191;28;20428;-58
2022/10/06 03:23:01;;;;;;;20.63;14.27;;;;;;;4.38;94.32;98856.69;10417929;28;20087;-58
2022/10/06 03:28:00;;;;;;;23.42;15.65;;;;;;;4.36;94.24;98866.00;10421050;28;20099;-58
2022/10/06 03:33:00;;;;;;;27.00;18.48;;;;;;;4.23;94.46;98852.66;10423279;28;20040;-58
2022/10/06 03:37:59;;;;;;;26.70;18.38;;;;;;;4.26;94.49;98855.34;10424305;28;20384;-58
2022/10/06 03:42:58;;;;;;;28.30;19.42;;;;;;;4.28;94.71;98851.16;10424035;28;20487;-58
2022/10/06 03:47:58;;;;;;;31.25;19.27;;;;;;;4.29;94.59;98855.50;10424437;28;20399;-58
2022/10/06 03:52:57;;;;;;;34.67;21.30;;;;;;;4.24;94.55;98841.59;10423790;28;20072;-58
2022/10/06 03:57:56;;;;;;;33.15;21.20;;;;;;;4.29;94.67;98855.50;10423509;28;20119;-58
2022/10/06 04:02:55;;;;;;;45.00;28.83;;;;;;;4.26;94.34;98857.91;10423203;28;20521;-58
2022/10/06 04:07:54;;;;;;;31.55;21.17;;;;;;;4.25;94.41;98858.75;10421680;28;20540;-58
2022/10/06 04:12:52;;;;;;;19.25;12.68;;;;;;;3.89;94.99;98873.44;10419689;28;20559;-58
2022/10/06 04:17:53;;;;;;;22.17;14.00;;;;;;;3.85;94.19;98861.31;10419166;28;20478;-58
2022/10/06 04:22:53;;;;;;;20.20;15.05;;;;;;;3.86;94.70;98863.06;10419091;28;20064;-58
2022/10/06 04:27:52;;;;;;;17.95;14.05;;;;;;;3.91;94.54;98865.81;10418443;28;20064;-58
2022/10/06 04:32:52;;;;;;;20.20;14.25;;;;;;;3.84;94.42;98878.38;10418796;28;20040;-58
2022/10/06 04:37:54;;;;;;;28.05;19.58;;;;;;;3.63;94.45;98880.03;10418208;28;20068;-58
2022/10/06 04:42:55;;;;;;;29.10;16.10;;;;;;;3.43;95.23;98869.75;10416010;28;20514;-59
2022/10/06 04:47:54;;;;;;;27.17;16.67;;;;;;;3.25;94.95;98850.97;10396442;28;20056;-58
2022/10/06 04:52:53;;;;;;;27.10;16.20;;;;;;;3.30;95.05;98897.34;10401638;28;20120;-58
2022/10/06 04:57:54;;;;;;;22.48;15.50;;;;;;;3.22;95.36;98877.34;10381758;28;20104;-58
2022/10/06 05:02:56;;;;;;;23.90;14.57;;;;;;;3.34;94.97;98882.16;10382800;28;20060;-58
2022/10/06 05:07:55;;;;;;;25.48;15.43;;;;;;;3.46;95.63;98889.53;10401896;28;20484;-58
2022/10/06 05:12:55;;;;;;;23.80;15.65;;;;;;;3.50;95.44;98881.19;10413705;28;20068;-58
2022/10/06 05:17:54;;;;;;;27.17;17.27;;;;;;;3.62;95.77;98878.28;10373115;28;20091;-58
2022/10/06 05:22:53;;;;;;;47.42;27.08;;;;;;;3.88;95.71;98881.97;10378300;28;20116;-58
2022/10/06 05:27:52;;;;;;;52.47;30.13;;;;;;;4.09;95.29;98882.03;10406179;28;20047;-58
2022/10/06 05:32:51;;;;;;;44.97;27.10;;;;;;;4.23;95.78;98874.91;10406455;28;20041;-58
2022/10/06 05:37:53;;;;;;;50.42;30.17;;;;;;;4.26;95.86;98878.47;10373772;28;20039;-58
2022/10/06 05:42:54;;;;;;;40.63;27.35;;;;;;;4.33;95.88;98878.75;10393097;28;20116;-58
2022/10/06 05:47:53;;;;;;;49.85;30.88;;;;;;;4.34;96.72;98870.19;10407557;28;20474;-58
2022/10/06 05:52:54;;;;;;;44.97;30.30;;;;;;;4.50;96.81;98877.72;10414990;28;20482;-58
2022/10/06 05:57:54;;;;;;;37.38;25.20;;;;;;;4.64;97.06;98889.47;10403436;28;20658;-58
2022/10/06 06:02:53;;;;;;;34.25;21.13;;;;;;;4.65;97.03;98875.78;10375409;28;20053;-58
2022/10/06 06:07:52;;;;;;;28.80;18.88;;;;;;;4.93;96.94;98897.47;10374320;28;20068;-58
2022/10/06 06:12:50;;;;;;;27.95;18.55;;;;;;;5.18;96.66;98898.44;10373344;28;20123;-58
2022/10/06 06:17:49;;;;;;;28.90;19.02;;;;;;;5.31;96.39;98899.00;10379425;28;20139;-58
2022/10/06 06:22:52;;;;;;;30.63;18.48;;;;;;;5.33;96.20;98899.06;10389108;28;20025;-58
2022/10/06 06:27:54;;;;;;;25.80;18.33;;;;;;;5.36;96.83;98904.31;10416975;28;20422;-58
2022/10/06 06:32:56;;;;;;;25.63;18.35;;;;;;;5.44;97.47;98905.50;10415822;28;20565;-58
2022/10/06 06:37:58;;;;;;;24.52;17.73;;;;;;;5.46;98.04;98896.13;10418053;28;20724;-58
2022/10/06 06:42:57;;;;;;;25.80;15.70;;;;;;;5.62;97.95;98891.53;10395087;28;20068;-58
2022/10/06 06:47:56;;;;;;;21.42;14.35;;;;;;;5.77;97.99;98889.53;10402155;28;20064;-58
2022/10/06 06:52:55;;;;;;;42.85;25.85;;;;;;;5.91;98.39;98890.03;10376593;28;20079;-58
2022/10/06 06:57:54;;;;;;;27.38;16.70;;;;;;;6.10;97.98;98876.09;10377684;28;20032;-58
2022/10/06 07:02:59;;;;;;;20.60;14.98;;;;;;;6.31;98.57;98876.81;10393521;28;20113;-58
2022/10/06 07:07:58;;;;;;;17.38;13.85;;;;;;;6.45;98.93;98871.28;10425219;28;20064;-58
2022/10/06 07:12:57;;;;;;;16.20;12.35;;;;;;;6.63;98.05;98869.25;10422772;28;20499;-58
2022/10/06 07:28:37;;;;;;;19.10;14.25;;;;;;;7.33;97.94;98859.38;10381986;28;20057;-58
2022/10/06 07:33:36;;;;;;;23.23;15.15;;;;;;;7.52;97.48;98855.66;10380221;28;20037;-59
2022/10/06 07:38:36;;;;;;;18.27;15.00;;;;;;;7.72;96.33;98840.75;10394587;28;20065;-58
2022/10/06 07:43:35;;;;;;;17.67;13.43;;;;;;;7.97;96.00;98860.38;10400787;28;20538;-58
2022/10/06 07:48:34;;;;;;;15.43;12.90;;;;;;;8.11;94.86;98863.31;10420647;28;20483;-58
2022/10/06 07:53:34;;;;;;;13.85;10.60;;;;;;;8.42;93.84;98868.47;10420734;28;20480;-59
2022/10/06 07:58:36;;;;;;;15.65;11.80;;;;;;;8.75;93.12;98869.28;10416152;28;20060;-58
2022/10/06 08:03:39;;;;;;;16.00;12.30;;;;;;;8.94;93.34;98843.84;10408159;28;20053;-58
2022/10/06 08:08:39;;;;;;;18.88;13.63;;;;;;;9.33;92.59;98844.75;10382250;28;20068;-58
2022/10/06 08:13:43;;;;;;;12.50;10.02;;;;;;;9.67;91.20;98840.25;10419371;28;20068;-58
2022/10/06 08:18:47;;;;;;;12.30;7.70;;;;;;;10.09;90.01;98849.69;10417399;28;20083;-58
2022/10/06 08:23:48;;;;;;;7.65;6.45;;;;;;;10.33;86.89;98844.06;10408418;28;20072;-58
2022/10/06 08:28:49;;;;;;;6.90;5.03;;;;;;;10.49;82.57;98840.00;10417512;28;20060;-59
2022/10/06 08:33:53;;;;;;;10.80;5.28;;;;;;;10.86;81.61;98838.88;10402651;28;20614;-59
2022/10/06 08:38:53;;;;;;;7.10;4.72;;;;;;;11.14;81.56;98844.53;10379964;28;20067;-59
2022/10/06 08:43:55;;;;;;;11.38;4.60;;;;;;;11.40;80.56;98840.53;10392005;28;20052;-60
2022/10/06 08:48:57;;;;;;;8.73;5.30;;;;;;;11.68;78.86;98827.88;10379622;28;20094;-59
2022/10/06 08:54:14;;;;;;;8.07;4.80;;;;;;;11.92;78.25;98832.47;10375168;28;20060;-59
2022/10/06 08:59:15;;;;;;;9.48;4.72;;;;;;;12.26;77.47;98825.03;10393241;28;20737;-59
2022/10/06 09:04:27;;;;;;;12.95;6.07;;;;;;;12.60;75.03;98823.66;10374484;28;20053;-59
2022/10/06 09:09:52;;;;;;;8.98;4.95;;;;;;;12.86;71.05;98816.03;10398384;28;20063;-59
2022/10/06 09:15:08;;;;;;;8.43;4.95;;;;;;;13.15;69.03;98813.59;10376189;28;20589;-59
2022/10/06 09:20:19;;;;;;;8.10;4.55;;;;;;;13.42;68.05;98803.28;10377668;28;20064;-59
2022/10/06 09:25:27;;;;;;;7.90;4.65;;;;;;;13.62;63.96;98795.59;10413695;28;20067;-59
2022/10/06 09:30:26;;;;;;;7.13;3.75;;;;;;;13.88;61.12;98804.34;10406472;28;20072;-59
2022/10/06 09:35:28;;;;;;;8.65;5.03;;;;;;;14.13;61.07;98799.19;10380010;28;20044;-59
2022/10/06 09:40:47;;;;;;;8.00;4.80;;;;;;;14.41;60.11;98798.34;10397115;28;20044;-59
2022/10/06 09:45:50;;;;;;;4.35;2.40;;;;;;;14.62;53.70;98800.09;10415409;28;20072;-59
2022/10/06 09:51:19;;;;;;;2.38;1.48;;;;;;;15.07;47.09;98776.53;10419180;28;20557;-59
2022/10/06 09:56:18;;;;;;;1.90;1.70;;;;;;;15.48;47.77;98785.09;10371998;28;20075;-59
2022/10/06 10:01:28;;;;;;;4.03;1.50;;;;;;;15.66;46.63;98767.56;10400755;28;20068;-59
2022/10/06 10:06:33;;;;;;;6.28;1.80;;;;;;;15.93;46.24;98773.56;10415854;28;20060;-59
2022/10/06 10:16:49;;;;;;;3.08;1.60;;;;;;;16.30;44.11;98748.00;10412718;28;20376;-59
2022/10/06 10:21:48;;;;;;;2.25;1.50;;;;;;;16.52;41.15;98758.28;10414793;28;20068;-59
2022/10/06 10:26:59;;;;;;;2.00;1.50;;;;;;;16.97;42.04;98750.88;10414839;28;20072;-59
2022/10/06 10:32:16;;;;;;;2.33;1.50;;;;;;;17.26;41.24;98741.78;10414378;28;20071;-59
2022/10/06 10:37:34;;;;;;;1.58;1.48;;;;;;;17.52;40.61;98737.09;10420678;28;20071;-59
2022/10/06 10:42:47;;;;;;;2.75;1.40;;;;;;;17.79;40.79;98726.25;10424285;28;20067;-59
2022/10/06 10:47:48;;;;;;;1.75;1.40;;;;;;;17.97;40.64;98723.38;10424002;28;20494;-59
2022/10/06 10:52:50;;;;;;;2.17;1.50;;;;;;;18.22;38.73;98717.72;10424298;28;20087;-59
2022/10/06 10:57:52;;;;;;;1.73;1.30;;;;;;;18.36;37.02;98720.97;10424157;28;20482;-59
2022/10/06 11:02:53;;;;;;;3.15;1.40;;;;;;;18.66;37.70;98716.09;10423308;28;20064;-59
2022/10/06 11:08:12;;;;;;;1.70;1.50;;;;;;;18.89;38.31;98697.28;10420710;28;20483;-59
2022/10/06 11:13:35;;;;;;;4.15;2.70;;;;;;;18.88;36.36;98692.91;10421186;28;20064;-59
2022/10/06 11:18:36;;;;;;;2.83;1.70;;;;;;;19.15;36.61;98687.09;10421067;28;20080;-59
2022/10/06 11:23:54;;;;;;;3.38;1.30;;;;;;;19.38;34.54;98678.72;10422574;28;20067;-59
2022/10/06 11:29:00;;;;;;;4.32;1.73;;;;;;;19.62;35.89;98682.59;10422523;28;20076;-60
2022/10/06 11:34:02;;;;;;;2.67;1.75;;;;;;;19.78;34.95;98672.56;10409782;28;20476;-59
2022/10/06 11:39:14;;;;;;;2.30;1.40;;;;;;;19.90;33.57;98649.47;10396462;28;20055;-59
2022/10/06 11:44:31;;;;;;;6.05;1.40;;;;;;;20.04;33.17;98647.38;10422099;28;20092;-59
2022/10/06 11:49:31;;;;;;;2.88;1.67;;;;;;;20.24;34.18;98650.38;10419656;28;20482;-59
2022/10/06 11:54:35;;;;;;;2.65;1.42;;;;;;;20.47;34.11;98652.44;10419852;28;20494;-59
2022/10/06 11:59:34;;;;;;;2.60;1.30;;;;;;;20.33;31.86;98628.19;10420014;28;20909;-59
2022/10/06 12:04:33;;;;;;;2.13;1.33;;;;;;;20.61;32.84;98632.72;10418047;28;20502;-59
2022/10/06 12:09:38;;;;;;;1.92;1.60;;;;;;;20.47;30.68;98620.78;10419183;28;20070;-59
2022/10/06 12:15:05;;;;;;;2.50;1.30;;;;;;;20.81;31.93;98618.97;10419905;28;20056;-59
2022/10/06 12:20:16;;;;;;;1.80;1.38;;;;;;;21.01;32.00;98611.34;10421011;28;20080;-59
2022/10/06 12:25:36;;;;;;;1.48;1.38;;;;;;;20.96;30.72;98607.09;10419053;28;20128;-59
2022/10/06 12:31:08;;;;;;;1.00;1.00;;;;;;;21.04;29.67;98605.97;10420377;28;20169;-59
2022/10/06 12:36:21;;;;;;;2.55;1.00;;;;;;;21.03;29.67;98606.00;10419666;28;20495;-59
2022/10/06 12:41:53;;;;;;;2.15;1.25;;;;;;;20.91;29.78;98601.97;10419777;28;20071;-59
2022/10/06 12:46:54;;;;;;;1.30;1.20;;;;;;;21.10;29.91;98603.16;10419681;28;20060;-59
2022/10/06 12:51:54;;;;;;;1.38;1.20;;;;;;;21.39;31.80;98587.38;10419613;28;20063;-59
2022/10/06 12:56:57;;;;;;;2.70;1.45;;;;;;;21.41;28.29;98589.06;10418892;28;20071;-59
2022/10/06 13:02:00;;;;;;;1.85;1.30;;;;;;;21.30;26.37;98581.47;10418236;28;20064;-59
2022/10/06 13:07:02;;;;;;;1.55;1.15;;;;;;;21.03;25.82;98569.06;10418762;28;20060;-59
2022/10/06 13:12:25;;;;;;;0.80;0.80;;;;;;;21.06;25.12;98577.78;10418551;28;20072;-59
2022/10/06 13:17:24;;;;;;;2.38;1.65;;;;;;;21.06;25.83;98567.22;10417777;28;20103;-59
2022/10/06 13:22:23;;;;;;;1.60;1.05;;;;;;;21.14;26.97;98569.63;10417198;28;20072;-59
2022/10/06 13:27:22;;;;;;;2.38;1.70;;;;;;;20.94;28.65;98578.16;10418138;28;20021;-59
2022/10/06 13:32:24;;;;;;;0.98;0.90;;;;;;;20.83;27.76;98574.97;10416513;28;20109;-59
2022/10/06 13:37:24;;;;;;;4.70;1.52;;;;;;;20.65;28.04;98576.34;10417581;28;20510;-59
2022/10/06 13:42:29;;;;;;;4.20;1.40;;;;;;;20.60;28.70;98580.91;10417874;28;20067;-59
2022/10/06 13:47:29;;;;;;;1.33;1.23;;;;;;;20.55;28.88;98570.47;10417032;28;20056;-59
2022/10/06 13:52:37;;;;;;;1.63;1.20;;;;;;;20.15;29.08;98554.88;10417568;28;20122;-59
2022/10/06 13:57:46;;;;;;;1.20;1.10;;;;;;;20.03;29.29;98579.78;10416181;28;20458;-59
2022/10/06 14:02:53;;;;;;;1.70;1.40;;;;;;;19.64;29.58;98545.63;10416568;28;20577;-59
2022/10/06 14:07:56;;;;;;;8.38;1.48;;;;;;;19.79;29.39;98575.97;10417058;28;20427;-59
2022/10/06 14:12:59;;;;;;;3.85;1.63;;;;;;;19.78;29.78;98571.63;10418885;28;20064;-59
2022/10/06 14:18:03;;;;;;;3.15;1.40;;;;;;;19.79;30.10;98576.88;10419229;28;20068;-59
2022/10/06 14:23:41;;;;;;;2.72;1.70;;;;;;;19.92;31.19;98581.81;10420388;28;20048;-58
2022/10/06 14:28:45;;;;;;;2.33;1.38;;;;;;;19.70;29.39;98579.72;10419807;28;20403;-57
2022/10/06 14:33:46;;;;;;;2.08;1.40;;;;;;;19.45;29.86;98576.78;10419928;28;20476;-58
2022/10/06 14:38:46;;;;;;;2.17;1.17;;;;;;;19.38;30.23;98578.69;10419547;28;20071;-58
2022/10/06 14:43:46;;;;;;;2.33;1.55;;;;;;;19.27;30.62;98585.09;10418102;28;20056;-58
2022/10/06 14:48:45;;;;;;;3.53;2.17;;;;;;;19.16;30.65;98594.13;10417657;28;20522;-58
2022/10/06 14:53:53;;;;;;;8.00;2.28;;;;;;;18.99;31.42;98597.13;10415196;28;20531;-58
2022/10/06 14:58:52;;;;;;;4.70;2.70;;;;;;;18.94;32.59;98598.09;10413287;28;20476;-57
2022/10/06 15:03:59;;;;;;;6.65;3.80;;;;;;;18.79;34.19;98599.28;10414575;28;20483;-58
2022/10/06 15:08:58;;;;;;;9.10;5.22;;;;;;;18.53;36.29;98592.78;10415122;28;20484;-60
2022/10/06 15:13:58;;;;;;;13.13;7.07;;;;;;;18.25;37.43;98581.91;10412355;28;20577;-60
2022/10/06 15:18:58;;;;;;;9.70;5.95;;;;;;;18.22;37.85;98599.50;10409740;28;20079;-60
2022/10/06 15:24:02;;;;;;;14.90;7.53;;;;;;;18.18;38.42;98603.94;10416288;28;20506;-60
2022/10/06 15:29:02;;;;;;;12.32;7.07;;;;;;;18.05;38.71;98605.06;10418131;28;20502;-60
2022/10/06 15:34:03;;;;;;;13.23;7.07;;;;;;;18.02;39.27;98605.97;10420595;28;20478;-60
2022/10/06 15:39:06;;;;;;;8.75;5.72;;;;;;;17.86;40.09;98610.63;10420777;28;20060;-57
2022/10/06 15:44:07;;;;;;;14.23;5.25;;;;;;;17.62;40.62;98616.25;10421167;28;20068;-57
2022/10/06 15:49:11;;;;;;;13.68;6.40;;;;;;;17.32;41.77;98624.53;10420639;28;20071;-57
2022/10/06 15:54:11;;;;;;;9.13;5.45;;;;;;;16.99;42.00;98630.25;10420215;28;20464;-57
2022/10/06 15:59:10;;;;;;;12.48;7.03;;;;;;;16.75;43.21;98637.50;10420313;28;20064;-60
2022/10/06 16:04:22;;;;;;;14.23;7.35;;;;;;;16.47;44.18;98636.94;10419537;28;20067;-60
2022/10/06 16:09:23;;;;;;;15.48;9.88;;;;;;;16.20;44.67;98640.69;10419449;28;20060;-60
2022/10/06 16:14:24;;;;;;;34.85;31.27;;;;;;;15.94;45.87;98644.41;10419415;28;20076;-60
2022/10/06 16:19:24;;;;;;;13.50;9.23;;;;;;;15.60;46.39;98647.25;10419295;28;20482;-60
2022/10/06 16:24:24;;;;;;;13.07;7.93;;;;;;;15.35;47.13;98661.38;10418967;28;20063;-60
2022/10/06 16:29:23;;;;;;;14.32;6.07;;;;;;;15.08;47.83;98662.38;10418933;28;20503;-60
2022/10/06 16:34:22;;;;;;;;;;;;;;;14.84;48.67;98666.81;10417512;28;20487;-59
2022/10/06 16:39:22;;;;;;;11.65;5.25;;;;;;;14.63;49.28;98659.88;10418667;28;19966;-60
2022/10/06 16:44:21;;;;;;;13.30;7.25;;;;;;;14.27;50.37;98646.03;10418227;28;20056;-60
2022/10/06 16:49:20;;;;;;;76.30;44.58;;;;;;;14.17;52.91;98673.91;10418403;28;20040;-60
2022/10/06 16:54:19;;;;;;;50.13;28.27;;;;;;;13.85;54.07;98673.91;10418181;28;20068;-60
2022/10/06 16:59:24;;;;;;;28.70;15.30;;;;;;;13.57;54.73;98684.28;10418034;28;20467;-60
2022/10/06 17:04:24;;;;;;;28.65;15.48;;;;;;;13.37;55.44;98696.38;10417540;28;20084;-60
2022/10/06 17:09:25;;;;;;;18.08;14.05;;;;;;;13.22;55.98;98691.13;10419454;28;20499;-60
2022/10/06 17:14:25;;;;;;;16.50;10.32;;;;;;;13.01;56.58;98700.59;10435949;28;20144;-57
2022/10/06 17:19:27;;;;;;;15.75;10.23;;;;;;;12.87;56.94;98694.44;10420169;28;20056;-57
2022/10/06 17:24:28;;;;;;;15.88;9.40;;;;;;;12.73;57.76;98705.66;10420145;28;20056;-57
2022/10/06 17:29:27;;;;;;;15.73;11.77;;;;;;;12.52;58.25;98697.72;10420157;28;20519;-57
2022/10/06 17:34:27;;;;;;;15.40;10.50;;;;;;;12.44;58.74;98712.44;10420028;28;20500;-57
2022/10/06 17:39:26;;;;;;;28.42;15.60;;;;;;;12.32;59.50;98725.34;10419979;28;20060;-57
2022/10/06 17:44:27;;;;;;;18.63;11.70;;;;;;;12.19;60.18;98716.56;10418591;28;20032;-57
2022/10/06 17:49:29;;;;;;;20.15;12.88;;;;;;;11.96;60.69;98705.94;10419837;28;20442;-57
2022/10/06 17:54:31;;;;;;;26.10;18.15;;;;;;;11.93;61.29;98726.75;10419548;28;20094;-57
2022/10/06 17:59:30;;;;;;;27.52;18.88;;;;;;;11.79;62.21;98724.00;10419031;28;20017;-57
2022/10/06 18:04:29;;;;;;;;;;;;;;;11.64;62.65;98724.69;10419319;28;20040;-57
2022/10/06 18:09:28;;;;;;;23.13;15.40;;;;;;;11.53;63.29;98732.41;10415622;28;19967;-57
2022/10/06 18:14:32;;;;;;;25.08;17.85;;;;;;;11.42;63.93;98732.28;10414925;28;20021;-57
2022/10/06 18:19:34;;;;;;;32.15;23.33;;;;;;;11.38;65.20;98745.22;10414867;28;20083;-59
2022/10/06 18:24:33;;;;;;;30.23;19.60;;;;;;;11.19;64.98;98731.13;10415180;28;20091;-60
2022/10/06 18:29:35;;;;;;;24.80;15.95;;;;;;;11.17;66.21;98738.91;10414886;28;20021;-60
2022/10/06 18:34:35;;;;;;;30.10;21.95;;;;;;;11.12;66.29;98747.50;10414135;28;20071;-60
2022/10/06 18:39:33;;;;;;;;;;;;;;;11.02;66.57;98747.38;10414103;28;20068;-57
2022/10/06 18:49:51;;;;;;;27.13;17.42;;;;;;;10.87;67.82;98754.06;10414222;28;20068;-59
2022/10/06 18:54:50;;;;;;;24.98;16.77;;;;;;;10.78;68.20;98757.41;10413987;28;20492;-60
2022/10/06 18:59:49;;;;;;;22.23;13.30;;;;;;;10.68;67.57;98763.31;10421662;28;20531;-59
2022/10/06 19:04:48;;;;;;;20.27;12.18;;;;;;;10.58;68.92;98768.34;10422256;28;20373;-57
2022/10/06 19:09:47;;;;;;;26.55;13.65;;;;;;;10.46;68.90;98769.91;10421441;28;20028;-57
2022/10/06 19:14:46;;;;;;;36.58;19.88;;;;;;;10.35;70.12;98778.38;10421677;28;20112;-58
2022/10/06 19:19:49;;;;;;;32.35;18.75;;;;;;;10.10;70.15;98752.91;10421567;28;20076;-57
2022/10/06 19:24:49;;;;;;;35.33;22.67;;;;;;;10.19;70.69;98778.97;10421524;28;20096;-57
2022/10/06 19:29:52;;;;;;;39.70;21.27;;;;;;;10.07;71.00;98777.03;10421004;28;20083;-57
2022/10/06 19:34:53;;;;;;;44.60;26.25;;;;;;;9.99;72.54;98786.41;10420725;28;20076;-59
2022/10/06 19:39:52;;;;;;;42.90;26.75;;;;;;;9.96;73.26;98791.56;10421406;28;20075;-59
2022/10/06 19:44:51;;;;;;;42.60;25.40;;;;;;;9.89;73.25;98790.56;10420512;28;20056;-57
2022/10/06 19:49:53;;;;;;;42.65;22.27;;;;;;;9.76;73.54;98784.25;10420635;28;20032;-57
2022/10/06 19:54:51;;;;;;;27.27;16.55;;;;;;;9.75;74.30;98799.81;10420184;28;20512;-57
2022/10/06 19:59:50;;;;;;;29.85;19.58;;;;;;;9.66;74.23;98797.91;10419867;28;20047;-57
2022/10/06 20:04:49;;;;;;;38.25;24.60;;;;;;;9.55;74.99;98789.03;10420025;28;20099;-57
2022/10/06 20:09:48;;;;;;;35.25;22.83;;;;;;;9.49;75.38;98791.53;10419940;28;20028;-57
2022/10/06 20:14:48;;;;;;;35.15;21.95;;;;;;;9.42;75.47;98797.41;10423233;28;20495;-57
2022/10/06 20:19:47;;;;;;;46.88;30.08;;;;;;;9.32;76.53;98805.00;10422879;28;20048;-57
2022/10/06 20:24:46;;;;;;;36.75;26.85;;;;;;;9.20;77.68;98814.19;10422627;28;20099;-57
2022/10/06 20:29:45;;;;;;;41.80;27.10;;;;;;;9.12;78.39;98809.72;10421207;28;20032;-57
2022/10/06 20:34:44;;;;;;;44.65;31.35;;;;;;;9.07;78.65;98807.88;10422260;28;20056;-57
2022/10/06 20:45:00;;;;;;;40.53;27.30;;;;;;;8.94;80.02;98815.34;10421868;28;20020;-57
2022/10/06 20:49:59;;;;;;;59.22;36.38;;;;;;;8.86;80.62;98810.88;10421553;28;20036;-57
2022/10/06 20:54:58;;;;;;;50.47;31.70;;;;;;;8.77;80.70;98811.53;10421288;28;20068;-57
2022/10/06 20:59:58;;;;;;;51.58;32.17;;;;;;;8.72;80.92;98807.97;10421289;28;20024;-57
2022/10/06 21:04:57;;;;;;;45.40;29.13;;;;;;;8.58;81.10;98799.00;10420940;28;20025;-57
2022/10/06 21:09:56;;;;;;;50.85;32.47;;;;;;;8.58;81.45;98806.78;10418201;28;20028;-57
2022/10/06 21:14:55;;;;;;;28.80;20.50;;;;;;;8.46;83.00;98805.63;10416928;28;20032;-60
2022/10/06 21:19:54;;;;;;;36.70;26.27;;;;;;;8.37;83.00;98814.88;10416923;28;20086;-57
2022/10/06 21:24:53;;;;;;;30.98;19.70;;;;;;;8.19;84.19;98817.88;10416429;28;20037;-57
2022/10/06 21:29:52;;;;;;;24.20;15.65;;;;;;;8.05;84.77;98818.38;10416510;28;20107;-58
2022/10/06 21:34:54;;;;;;;22.33;15.82;;;;;;;7.99;84.89;98826.00;10406829;28;20025;-57
2022/10/06 21:39:53;;;;;;;26.67;17.20;;;;;;;7.96;84.27;98822.44;10414871;28;20079;-57
2022/10/06 21:44:52;;;;;;;28.45;18.88;;;;;;;7.94;84.34;98819.81;10414344;28;20029;-57
2022/10/06 21:49:51;;;;;;;38.78;22.92;;;;;;;7.91;84.54;98818.88;10413961;28;20036;-57
2022/10/06 21:54:50;;;;;;;42.78;24.63;;;;;;;7.85;84.64;98819.59;10374239;28;20115;-57
2022/10/06 21:59:49;;;;;;;;;;;;;;;7.81;85.07;98813.44;10345941;28;20511;-57
2022/10/06 22:04:48;;;;;;;33.35;19.98;;;;;;;7.78;84.94;98808.19;10371202;28;20839;-57
2022/10/06 22:09:47;;;;;;;42.33;25.83;;;;;;;7.75;85.28;98818.44;10384941;28;20422;-57
2022/10/06 22:14:46;;;;;;;59.20;34.72;;;;;;;7.39;85.12;98767.50;10408711;28;20115;-56
2022/10/06 22:19:45;;;;;;;60.92;36.50;;;;;;;7.64;85.64;98823.31;10412870;28;20083;-57
2022/10/06 22:24:44;;;;;;;42.90;24.50;;;;;;;7.60;85.11;98818.91;10412680;28;20112;-56
2022/10/06 22:29:43;;;;;;;33.33;20.55;;;;;;;7.60;85.27;98805.13;10413076;28;20075;-56
2022/10/06 22:34:42;;;;;;;34.70;21.98;;;;;;;7.58;85.64;98812.81;10411157;28;20044;-56
2022/10/06 22:39:41;;;;;;;25.40;16.58;;;;;;;7.59;85.62;98812.00;10413354;28;20471;-57
2022/10/06 22:44:40;;;;;;;26.95;17.85;;;;;;;7.60;86.36;98805.97;10412695;28;20475;-57
2022/10/06 22:49:38;;;;;;;22.27;15.65;;;;;;;7.60;86.27;98818.91;10412286;28;20593;-57
2022/10/06 22:54:37;;;;;;;27.23;16.75;;;;;;;7.57;86.14;98813.66;10411674;28;20139;-57
2022/10/06 22:59:39;;;;;;;21.35;13.90;;;;;;;7.46;87.26;98820.22;10412611;28;20258;-57
2022/10/06 23:04:37;;;;;;;17.75;11.10;;;;;;;7.35;87.43;98821.59;10412144;28;20068;-57
2022/10/06 23:09:36;;;;;;;16.67;11.82;;;;;;;7.30;87.44;98816.28;10412396;28;20584;-57
2022/10/06 23:14:35;;;;;;;19.65;11.48;;;;;;;7.29;87.35;98821.38;10412150;28;20040;-57
2022/10/06 23:19:34;;;;;;;18.67;10.88;;;;;;;7.23;88.26;98817.81;10411593;28;20123;-57
2022/10/06 23:24:33;;;;;;;17.77;10.88;;;;;;;7.23;87.41;98820.38;10411503;28;20058;-57
2022/10/06 23:29:32;;;;;;;16.65;10.52;;;;;;;7.20;88.55;98822.03;10412436;28;20112;-57
2022/10/06 23:34:31;;;;;;;19.80;13.27;;;;;;;7.15;88.46;98833.91;10410626;28;20068;-57
2022/10/06 23:39:30;;;;;;;24.80;13.40;;;;;;;7.06;88.23;98819.03;10411807;28;20028;-57